Latest Weather Observations for Bankstown

IDN60901

Issued at 10:52 am EST Monday 19 April 2021 (issued every 10 minutes, with the page automatically refreshed every 10 minutes)

About weather observations | Map of Sydney area stations | Latest observations for Sydney area | Other Formats
Station Details ID: 066137 Name: BANKSTOWN AIRPORT AWS Lat: -33.92 Lon: 150.98 Height: 7.2 m
Data from the previous 72 hours. | See also: Recent months at Bankstown
Date/Time
EST
Temp
°C
App
Temp
°C
Dew
Point
°C
Rel
Hum
%
Delta-T
°C
Wind Press
QNH
hPa
Press
MSL
hPa
Rain since
9am
mm
Dir  Spd
km/h
Gust
km/h
Spd
kts
Gust
kts
19/10:30am 18.8 17.3 9.3 54 5.0 NW 7 13 4 7 1018.3 1018.3 0.0
19/10:00am 17.6 15.4 9.2 58 4.4 WNW 11 15 6 8 1018.7 1018.7 0.0
19/09:30am 16.7 14.6 9.9 64 3.6 WNW 11 15 6 8 1019.1 1019.1 0.0
19/09:00am 15.2 13.4 9.6 69 2.9 WNW 9 13 5 7 1019.3 1019.3 0.2
19/08:30am 13.7 12.1 10.3 80 1.8 W 9 13 5 7 1019.5 1019.5 0.2
19/08:00am 12.6 11.7 11.2 91 0.7 NW 7 9 4 5 1019.6 1019.6 0.2
19/07:30am 11.9 12.3 11.1 95 0.4 CALM 0 0 0 0 1019.4 1019.4 0.2
19/07:00am 10.8 10.1 10.2 96 0.3 NW 4 7 2 4 1019.2 1019.2 0.2
19/06:30am 9.8 9.6 9.0 95 0.4 CALM 0 0 0 0 1019.0 1019.0 0.2
19/06:00am 9.4 8.7 8.6 95 0.4 NW 2 6 1 3 1018.9 1018.9 0.0
19/05:30am 9.4 9.1 8.5 94 0.4 CALM 0 0 0 0 1018.9 1018.9 0.0
19/05:00am 9.5 9.2 8.6 94 0.4 CALM 0 0 0 0 1018.7 1018.7 0.0
19/04:30am 9.4 9.1 8.5 94 0.4 CALM 0 0 0 0 1018.7 1018.7 0.0
19/04:00am 9.8 9.6 8.9 94 0.4 CALM 0 0 0 0 1018.5 1018.5 0.0
19/03:30am 9.6 9.3 8.5 93 0.5 CALM 0 0 0 0 1018.6 1018.6 0.0
19/03:00am 10.2 10.0 9.1 93 0.5 CALM 0 0 0 0 1018.6 1018.6 0.0
19/02:30am 10.5 10.4 9.4 93 0.5 CALM 0 0 0 0 1018.8 1018.8 0.0
19/02:00am 10.5 10.4 9.4 93 0.5 CALM 0 0 0 0 1018.9 1018.9 0.0
19/01:30am 11.2 11.3 10.0 92 0.6 CALM 0 0 0 0 1019.2 1019.2 0.0
19/01:00am 10.9 10.9 9.7 92 0.6 CALM 0 0 0 0 1019.5 1019.5 0.0
19/12:30am 11.6 11.7 10.2 91 0.7 CALM 0 0 0 0 1019.5 1019.5 0.0
19/12:00am 12.0 12.2 10.6 91 0.7 CALM 0 0 0 0 1019.6 1019.6 0.0
 
Date/Time
EST
Temp
°C
App
Temp
°C
Dew
Point
°C
Rel
Hum
%
Delta-T
°C
Wind Press
QNH
hPa
Press
MSL
hPa
Rain since
9am
mm
Dir  Spd
km/h
Gust
km/h
Spd
kts
Gust
kts
18/11:30pm 12.2 12.4 10.4 89 0.9 CALM 0 0 0 0 1019.8 1019.8 0.0
18/11:00pm 12.7 13.0 10.9 89 0.9 CALM 0 0 0 0 1020.0 1020.0 0.0
18/10:30pm 13.0 13.4 11.4 90 0.8 CALM 0 0 0 0 1020.3 1020.3 0.0
18/10:00pm 12.6 12.9 11.0 90 0.8 CALM 0 0 0 0 1020.2 1020.2 0.0
18/09:30pm 13.3 13.8 11.7 90 0.9 CALM 0 0 0 0 1020.1 1020.1 0.0
18/09:00pm 13.6 14.2 11.8 89 1.0 CALM 0 0 0 0 1020.1 1020.1 0.0
18/08:30pm 13.8 14.2 11.1 84 1.4 CALM 0 0 0 0 1020.0 1020.0 0.0
18/08:00pm 14.5 14.9 11.1 80 1.8 CALM 0 0 0 0 1019.9 1019.9 0.0
18/07:30pm 15.4 15.8 11.2 76 2.2 CALM 0 0 0 0 1019.7 1019.7 0.0
18/07:00pm 16.7 16.0 11.4 71 2.9 E 6 7 3 4 1019.7 1019.7 0.0
18/06:30pm 17.5 16.6 11.5 68 3.3 E 7 11 4 6 1019.5 1019.5 0.0
18/06:00pm 18.0 15.9 11.3 65 3.6 E 13 15 7 8 1019.0 1019.0 0.0
18/05:30pm 18.4 16.3 11.2 63 3.9 E 13 17 7 9 1018.7 1018.7 0.0
18/05:00pm 19.1 16.6 11.2 60 4.3 ESE 15 20 8 11 1018.5 1018.5 0.0
18/04:30pm 20.0 17.2 11.5 58 4.7 ESE 17 22 9 12 1018.4 1018.4 0.0
18/04:00pm 20.8 18.1 11.7 56 5.0 E 17 24 9 13 1018.3 1018.3 0.0
18/03:30pm 21.3 19.3 10.2 49 6.0 E 11 17 6 9 1018.4 1018.4 0.0
18/03:00pm 20.6 18.3 10.4 52 5.5 ENE 13 20 7 11 1018.6 1018.6 0.0
18/02:30pm 21.5 19.0 9.7 47 6.3 E 13 17 7 9 1018.7 1018.7 0.0
18/02:00pm 22.1 20.4 9.9 46 6.6 SE 9 22 5 12 1018.9 1018.9 0.0
18/01:30pm 22.3 20.8 9.1 43 7.1 ESE 7 11 4 6 1019.3 1019.3 0.0
18/01:00pm 21.8 19.6 8.0 41 7.2 NW 9 13 5 7 1019.8 1019.8 0.0
18/12:30pm 21.4 20.4 9.0 45 6.6 E 4 9 2 5 1020.4 1020.4 0.0
18/12:00pm 20.4 18.6 9.3 49 5.9 E 9 13 5 7 1020.9 1020.9 0.0
18/11:30am 20.4 19.0 9.0 48 6.0 NE 6 9 3 5 1021.4 1021.4 0.0
18/11:00am 19.9 18.8 10.0 53 5.3 ESE 6 9 3 5 1021.8 1021.8 0.0
18/10:30am 18.9 17.8 9.9 56 4.8 W 6 11 3 6 1022.0 1022.0 0.0
18/10:00am 17.9 16.3 10.3 61 4.0 WNW 9 13 5 7 1022.2 1022.2 0.0
18/09:30am 16.5 14.9 10.1 66 3.4 W 9 13 5 7 1022.4 1022.4 0.0
18/09:00am 15.1 13.4 9.7 70 2.8 W 9 15 5 8 1022.5 1022.5 0.0
18/08:30am 13.5 11.3 9.2 75 2.2 W 11 15 6 8 1022.4 1022.4 0.0
18/08:00am 12.3 10.6 9.9 85 1.2 WNW 9 13 5 7 1022.4 1022.4 0.0
18/07:30am 10.8 9.7 9.9 94 0.5 NW 6 13 3 7 1022.1 1022.1 0.0
18/07:00am 9.5 8.5 8.7 95 0.4 NNW 4 7 2 4 1022.0 1022.0 0.0
18/06:30am 8.5 6.8 7.6 94 0.4 NNW 6 7 3 4 1021.9 1021.9 0.0
18/06:00am 8.1 6.3 7.2 94 0.4 NNW 6 7 3 4 1021.7 1021.7 0.0
18/05:30am 8.3 7.7 7.4 94 0.4 CALM 0 0 0 0 1021.8 1021.8 0.0
18/05:00am 8.6 8.1 7.7 94 0.4 CALM 0 6 0 3 1021.7 1021.7 0.0
18/04:30am 9.4 7.9 8.6 95 0.4 WNW 6 9 3 5 1021.6 1021.6 0.0
18/04:00am 8.7 8.2 7.8 94 0.4 CALM 0 0 0 0 1021.4 1021.4 0.0
18/03:30am 9.0 8.6 8.1 94 0.4 CALM 0 0 0 0 1021.3 1021.3 0.0
18/03:00am 8.8 8.3 7.9 94 0.4 CALM 0 0 0 0 1021.3 1021.3 0.0
18/02:30am 9.2 8.8 8.1 93 0.5 CALM 0 0 0 0 1021.4 1021.4 0.0
18/02:00am 9.5 9.1 8.4 93 0.5 CALM 0 0 0 0 1021.8 1021.8 0.0
18/01:30am 9.7 9.4 8.5 92 0.6 CALM 0 0 0 0 1021.9 1021.9 0.0
18/01:00am 10.0 9.8 8.9 93 0.5 CALM 0 0 0 0 1022.0 1022.0 0.0
18/12:30am 10.4 9.1 9.3 93 0.5 N 6 7 3 4 1022.1 1022.1 0.0
18/12:00am 10.5 10.4 9.3 92 0.6 CALM 0 0 0 0 1022.4 1022.4 0.0
 
Date/Time
EST
Temp
°C
App
Temp
°C
Dew
Point
°C
Rel
Hum
%
Delta-T
°C
Wind Press
QNH
hPa
Press
MSL
hPa
Rain since
9am
mm
Dir  Spd
km/h
Gust
km/h
Spd
kts
Gust
kts
17/11:30pm 10.7 10.6 9.5 92 0.6 CALM 0 0 0 0 1022.6 1022.6 0.0
17/11:00pm 11.2 11.2 9.8 91 0.7 CALM 0 0 0 0 1022.7 1022.7 0.0
17/10:30pm 11.5 11.5 9.9 90 0.8 CALM 0 0 0 0 1023.0 1023.0 0.0
17/10:00pm 11.7 11.7 9.8 88 1.0 CALM 0 0 0 0 1023.1 1023.1 0.0
17/09:30pm 11.8 11.7 9.5 86 1.2 CALM 0 0 0 0 1023.1 1023.1 0.0
17/09:00pm 12.6 12.8 10.5 87 1.1 CALM 0 0 0 0 1023.1 1023.1 0.0
17/08:30pm 12.9 12.9 9.7 81 1.6 CALM 0 0 0 0 1023.0 1023.0 0.0
17/08:00pm 13.2 12.8 9.8 80 1.7 N 2 6 1 3 1023.1 1023.1 0.0
17/07:30pm 14.4 14.5 10.0 75 2.3 CALM 0 0 0 0 1022.9 1022.9 0.0
17/07:00pm 15.8 15.3 10.6 71 2.7 N 4 6 2 3 1022.7 1022.7 0.0
17/06:30pm 16.6 15.5 10.7 68 3.1 NNW 7 9 4 5 1022.4 1022.4 0.0
17/06:00pm 17.5 16.4 10.6 64 3.7 N 7 11 4 6 1022.3 1022.3 0.0
17/05:30pm 17.8 16.7 10.7 63 3.8 N 7 9 4 5 1022.1 1022.1 0.0
17/05:00pm 18.2 16.8 10.8 62 4.0 N 9 11 5 6 1021.9 1021.9 0.0
17/04:30pm 18.8 17.7 10.6 59 4.4 NNW 7 11 4 6 1021.5 1021.5 0.0
17/04:00pm 18.8 17.1 8.5 51 5.3 NE 7 9 4 5 1021.3 1021.3 0.0
17/03:30pm 18.8 17.4 8.7 52 5.2 ENE 6 11 3 6 1021.5 1021.5 0.0
17/03:00pm 18.9 18.8 9.4 54 5.0 CALM 0 0 0 0 1021.6 1021.6 0.0
17/02:30pm 18.8 18.6 9.0 53 5.1 CALM 0 2 0 1 1021.6 1021.6 0.0
17/02:00pm 18.6 18.3 8.8 53 5.1 CALM 0 0 0 0 1021.7 1021.7 0.0
17/01:30pm 18.7 18.0 8.7 52 5.2 SW 2 7 1 4 1021.7 1021.7 0.0
17/01:00pm 18.6 18.4 9.1 54 5.0 CALM 0 0 0 0 1021.7 1021.7 0.0
17/12:30pm 18.7 18.5 8.9 53 5.1 CALM 0 0 0 0 1022.4 1022.4 0.0
17/12:00pm 18.9 17.7 8.0 49 5.6 ENE 4 9 2 5 1022.3 1022.3 0.0
17/11:30am 19.2 17.8 8.8 51 5.4 SE 6 11 3 6 1022.6 1022.6 0.0
17/11:00am 18.7 18.5 10.5 59 4.4 WSW 2 7 1 4 1023.0 1023.0 0.0
17/10:30am 18.0 18.5 11.6 66 3.5 CALM 0 0 0 0 1023.5 1023.5 0.0
17/10:00am 16.8 17.2 11.3 70 3.0 CALM 0 0 0 0 1023.8 1023.8 0.0
17/09:30am 15.8 16.3 11.6 76 2.3 CALM 0 0 0 0 1023.5 1023.5 0.0
17/09:00am 14.9 15.3 11.1 78 2.0 CALM 0 0 0 0 1023.6 1023.6 0.0
17/08:30am 14.2 14.4 10.6 79 1.9 CALM 0 0 0 0 1023.8 1023.8 0.0
17/08:00am 13.7 13.9 10.5 81 1.7 CALM 0 0 0 0 1024.0 1024.0 0.0
17/07:30am 13.6 13.8 10.4 81 1.7 CALM 0 0 0 0 1024.0 1024.0 0.0
17/07:00am 13.4 13.1 10.2 81 1.6 WSW 2 7 1 4 1024.1 1024.1 0.0
17/06:30am 13.3 13.4 10.3 82 1.6 CALM 0 0 0 0 1023.6 1023.6 0.0
17/06:00am 13.0 13.1 10.0 82 1.5 CALM 0 0 0 0 1023.6 1023.6 0.0
17/05:30am 12.9 13.0 10.3 84 1.3 CALM 0 0 0 0 1023.2 1023.2 0.0
17/05:00am 13.1 13.1 9.9 81 1.6 CALM 0 0 0 0 1022.9 1022.9 0.0
17/04:30am 13.3 13.4 10.1 81 1.7 CALM 0 0 0 0 1022.7 1022.7 0.0
17/04:00am 13.5 13.6 10.3 81 1.7 CALM 0 0 0 0 1022.9 1022.9 0.0
17/03:30am 13.3 13.4 10.3 82 1.6 CALM 0 0 0 0 1022.8 1022.8 0.0
17/03:00am 13.3 13.4 10.3 82 1.5 CALM 0 0 0 0 1022.7 1022.7 0.0
17/02:30am 13.3 13.3 9.9 80 1.7 CALM 0 0 0 0 1022.6 1022.6 0.0
17/02:00am 13.4 12.7 10.2 81 1.6 SSW 4 7 2 4 1023.0 1023.0 0.0
17/01:30am 13.3 13.5 10.5 83 1.5 CALM 0 0 0 0 1023.8 1023.8 0.0
17/01:00am 13.1 13.2 10.1 82 1.5 CALM 0 0 0 0 1023.6 1023.6 0.0
17/12:30am 13.7 13.7 9.9 78 2.0 CALM 0 0 0 0 1023.7 1023.7 0.0
17/12:00am 14.6 14.7 10.2 75 2.3 CALM 0 0 0 0 1023.6 1023.6 0.0
 
Date/Time
EST
Temp
°C
App
Temp
°C
Dew
Point
°C
Rel
Hum
%
Delta-T
°C
Wind Press
QNH
hPa
Press
MSL
hPa
Rain since
9am
mm
Dir  Spd
km/h
Gust
km/h
Spd
kts
Gust
kts
16/11:30pm 15.0 15.1 10.0 72 2.6 CALM 0 0 0 0 1024.0 1024.0 0.0
16/11:00pm 15.3 15.3 9.9 70 2.8 CALM 0 0 0 0 1024.2 1024.2 0.0
16/10:30pm 15.5 15.6 10.3 71 2.7 CALM 0 0 0 0 1024.3 1024.3 0.0
16/10:00pm 15.3 15.4 10.3 72 2.6 CALM 0 0 0 0 1024.3 1024.3 0.0
16/09:30pm 15.5 14.9 10.5 72 2.6 W 4 7 2 4 1024.3 1024.3 0.0
16/09:00pm 15.5 15.7 10.7 73 2.5 CALM 0 0 0 0 1024.1 1024.1 0.0
16/08:30pm 15.7 14.5 10.2 70 2.9 WSW 7 7 4 4 1023.9 1023.9 0.0
16/08:00pm 15.9 15.8 9.6 66 3.3 CALM 0 0 0 0 1023.6 1023.6 0.0
16/07:30pm 16.3 15.4 9.3 63 3.6 SE 4 9 2 5 1023.5 1023.5 0.0
16/07:00pm 16.8 15.1 9.7 63 3.7 SE 9 11 5 6 1023.4 1023.4 0.0
16/06:30pm 17.0 14.5 9.7 62 3.8 SE 13 15 7 8 1023.2 1023.2 0.0
16/06:00pm 17.7 14.4 9.6 59 4.2 SE 17 22 9 12 1022.7 1022.7 0.0
16/05:30pm 17.8 13.6 9.7 59 4.3 SE 22 30 12 16 1022.3 1022.3 0.0
16/05:00pm 18.2 14.4 9.8 58 4.4 SE 20 30 11 16 1021.9 1021.9 0.0
16/04:30pm 18.8 13.9 9.8 56 4.8 SE 26 32 14 17 1021.5 1021.5 0.0
16/04:00pm 19.1 14.2 9.9 55 4.9 SE 26 33 14 18 1021.3 1021.3 0.0
16/03:30pm 19.5 14.6 10.0 54 5.1 SE 26 35 14 19 1021.1 1021.1 0.0
16/03:00pm 19.7 15.6 10.1 54 5.1 SE 22 32 12 17 1021.1 1021.1 0.0
16/02:30pm 19.6 14.7 9.8 53 5.2 SSE 26 35 14 19 1020.9 1020.9 0.0
16/02:00pm 20.7 16.3 11.6 56 5.0 SSE 26 35 14 19 1020.6 1020.6 0.0
16/01:30pm 20.6 17.2 11.2 55 5.2 SSE 20 32 11 17 1020.5 1020.5 0.0
16/01:00pm 21.2 16.5 10.7 51 5.7 SSE 26 39 14 21 1020.5 1020.5 0.0
16/12:30pm 20.5 16.2 10.9 54 5.3 S 24 32 13 17 1020.8 1020.8 0.0
16/12:00pm 21.1 16.8 10.6 51 5.7 SSE 24 32 13 17 1021.1 1021.1 0.0
16/11:30am 21.3 17.6 10.2 49 6.0 S 20 32 11 17 1021.2 1021.2 0.0
16/11:00am 21.5 16.4 7.7 41 7.1 S 24 33 13 18 1021.1 1021.1 0.0

Latest Capital City Observations: Canberra | Sydney | Melbourne | Brisbane | Adelaide | Perth | Hobart | Darwin

Other formats

Comma delimited format used in spreadsheet applications
http://www.bom.gov.au/fwo/IDN60901/IDN60901.94765.axf

JavaScript Object Notation format (JSON) in row-major order
http://www.bom.gov.au/fwo/IDN60901/IDN60901.94765.json

Data quality

Most of these data are generated automatically and are frequently updated. Quality checks on data are not normally performed. It is possible for incorrect values to appear. Refer to information at About Latest Weather Observations and please check the disclaimer before using these data.